createdAt,value
2023-02-24T00:01:25.143Z,71.87
2023-02-24T00:04:11.532Z,71.96
2023-02-24T00:06:55.979Z,71.17
2023-02-24T00:09:41.022Z,71.61
2023-02-24T00:12:26.457Z,71.30
2023-02-24T00:15:12.944Z,72.29
2023-02-24T00:17:58.536Z,72.80
2023-02-24T00:20:42.682Z,72.32
2023-02-24T00:23:26.680Z,72.63
2023-02-24T00:26:12.918Z,72.10
2023-02-24T00:29:00.176Z,71.85
2023-02-24T00:31:47.385Z,71.86
2023-02-24T00:34:35.587Z,72.30
2023-02-24T00:37:24.059Z,71.67
2023-02-24T00:40:11.478Z,71.59
2023-02-24T00:42:56.465Z,71.12
2023-02-24T00:45:40.693Z,71.68
2023-02-24T00:48:28.365Z,71.55
2023-02-24T00:51:12.382Z,71.89
2023-02-24T00:53:58.062Z,72.60
2023-02-24T00:56:44.729Z,72.47
2023-02-24T00:59:29.249Z,72.24
2023-02-24T01:02:13.076Z,73.14
2023-02-24T01:04:58.708Z,72.97
2023-02-24T01:07:42.572Z,73.91
2023-02-24T01:10:28.451Z,73.21
2023-02-24T01:13:11.206Z,75.22
2023-02-24T01:16:02.430Z,73.73
2023-02-24T01:18:47.770Z,73.59
2023-02-24T01:21:33.032Z,72.79
2023-02-24T01:24:16.843Z,73.12
2023-02-24T01:27:00.971Z,73.88
2023-02-24T01:29:45.523Z,74.10
2023-02-24T01:32:32.126Z,74.61
2023-02-24T01:35:16.308Z,73.90
2023-02-24T01:38:01.846Z,74.85
2023-02-24T01:40:45.673Z,75.49
2023-02-24T01:43:29.746Z,75.55
2023-02-24T01:46:13.804Z,75.54
2023-02-24T01:49:02.779Z,75.59
2023-02-24T01:51:50.673Z,75.84
2023-02-24T01:54:43.125Z,76.29
2023-02-24T01:57:31.544Z,76.00
2023-02-24T02:00:32.861Z,75.84
2023-02-24T02:03:30.692Z,76.03
2023-02-24T02:06:17.897Z,76.14
2023-02-24T02:09:02.903Z,76.27
2023-02-24T02:11:49.321Z,76.77
2023-02-24T02:14:33.699Z,76.76
2023-02-24T02:17:27.240Z,77.88
2023-02-24T02:20:56.018Z,77.05
2023-02-24T02:23:59.017Z,76.92
2023-02-24T02:27:24.878Z,76.91
2023-02-24T02:30:25.560Z,77.25
2023-02-24T02:34:05.650Z,77.63
2023-02-24T02:37:01.807Z,78.78
2023-02-24T02:39:53.056Z,78.47
2023-02-24T02:42:44.160Z,78.07
2023-02-24T02:45:35.519Z,78.27
2023-02-24T02:48:26.543Z,77.94
2023-02-24T02:51:17.755Z,77.93
2023-02-24T02:54:10.301Z,78.22
2023-02-24T02:57:01.766Z,78.33
2023-02-24T02:59:52.726Z,78.77
2023-02-24T03:02:40.152Z,78.70
2023-02-24T03:05:29.844Z,78.46
2023-02-24T03:08:19.799Z,78.92
2023-02-24T03:11:08.922Z,78.85
2023-02-24T03:13:56.283Z,78.49
2023-02-24T03:16:43.002Z,78.21
2023-02-24T03:19:32.273Z,78.19
2023-02-24T03:22:20.730Z,78.33
2023-02-24T03:25:06.463Z,78.35
2023-02-24T03:28:01.775Z,78.33
2023-02-24T03:30:51.000Z,78.26
2023-02-24T03:33:41.067Z,78.24
2023-02-24T03:36:25.261Z,78.12
2023-02-24T03:39:12.169Z,78.18
2023-02-24T03:42:08.259Z,77.89
2023-02-24T03:44:58.240Z,78.12
2023-02-24T03:47:42.768Z,78.62
2023-02-24T03:50:31.840Z,77.89
2023-02-24T03:53:32.163Z,78.91
2023-02-24T03:56:28.918Z,79.12
2023-02-24T03:59:25.321Z,79.42
2023-02-24T04:02:19.465Z,79.18
2023-02-24T04:05:13.835Z,78.16
2023-02-24T04:08:13.124Z,78.21
2023-02-24T04:11:05.506Z,77.41
2023-02-24T04:13:54.308Z,77.78
2023-02-24T04:16:49.685Z,77.48
2023-02-24T04:19:40.617Z,77.69
2023-02-24T04:22:27.700Z,77.43
2023-02-24T04:25:15.928Z,77.79
2023-02-24T04:28:03.234Z,78.13
2023-02-24T04:30:50.983Z,77.43
2023-02-24T04:33:35.736Z,77.08
2023-02-24T04:36:22.305Z,77.59
2023-02-24T04:39:07.803Z,76.94
2023-02-24T04:41:53.189Z,76.88
2023-02-24T04:44:37.210Z,76.85
2023-02-24T04:47:21.336Z,77.15
2023-02-24T04:50:07.039Z,77.35
2023-02-24T04:52:57.385Z,77.15
2023-02-24T04:55:43.337Z,77.16
2023-02-24T04:58:28.742Z,76.91
2023-02-24T05:01:12.940Z,76.82
2023-02-24T05:03:57.020Z,76.81
2023-02-24T05:06:44.152Z,77.27
2023-02-24T05:09:30.318Z,76.84
2023-02-24T05:12:14.965Z,78.40
2023-02-24T05:15:01.332Z,77.01
2023-02-24T05:17:50.586Z,77.28
2023-02-24T05:20:54.764Z,76.98
2023-02-24T05:23:41.049Z,77.88
2023-02-24T05:26:27.373Z,77.67
2023-02-24T05:29:12.599Z,76.55
2023-02-24T05:32:00.069Z,78.15
2023-02-24T05:34:44.198Z,77.28
2023-02-24T05:37:28.602Z,77.21
2023-02-24T05:40:14.901Z,76.10
2023-02-24T05:43:04.200Z,75.48
2023-02-24T05:45:48.225Z,75.31
2023-02-24T05:48:35.275Z,74.90
2023-02-24T05:51:19.647Z,73.94
2023-02-24T05:54:04.822Z,73.47
2023-02-24T05:56:48.900Z,73.96
2023-02-24T05:59:34.678Z,73.48
2023-02-24T06:02:27.494Z,73.89
2023-02-24T06:05:25.411Z,73.74
2023-02-24T06:08:11.845Z,73.08
2023-02-24T06:10:55.862Z,73.84
2023-02-24T06:13:40.207Z,74.59
2023-02-24T06:16:26.277Z,74.30
2023-02-24T06:19:12.326Z,74.00
2023-02-24T06:21:56.954Z,73.13
2023-02-24T06:24:44.313Z,74.27
2023-02-24T06:27:28.583Z,72.17
2023-02-24T06:30:15.294Z,72.57
2023-02-24T06:33:00.901Z,71.05
2023-02-24T06:35:44.909Z,70.83
2023-02-24T06:38:28.967Z,70.81
2023-02-24T06:41:13.893Z,70.49
2023-02-24T06:43:59.034Z,70.57
2023-02-24T06:46:43.502Z,71.23
2023-02-24T06:49:29.350Z,70.98
2023-02-24T06:52:18.608Z,71.59
2023-02-24T06:55:04.768Z,71.21
2023-02-24T06:57:50.256Z,70.65
2023-02-24T07:00:39.079Z,70.29
2023-02-24T07:03:24.664Z,69.41
2023-02-24T07:06:22.111Z,68.98
2023-02-24T07:09:10.465Z,69.21
2023-02-24T07:11:56.883Z,68.54
2023-02-24T07:14:41.947Z,68.52
2023-02-24T07:17:26.593Z,68.45
2023-02-24T07:20:25.184Z,70.06
2023-02-24T07:23:11.146Z,69.32
2023-02-24T07:25:58.556Z,69.61
2023-02-24T07:28:44.915Z,70.51
2023-02-24T07:31:28.962Z,70.70
2023-02-24T07:34:15.193Z,70.74
2023-02-24T07:36:59.364Z,69.86
2023-02-24T07:39:44.502Z,71.43
2023-02-24T07:42:30.689Z,70.66
2023-02-24T07:45:15.547Z,69.65
2023-02-24T07:48:01.370Z,70.53
2023-02-24T07:50:45.604Z,70.22
2023-02-24T07:53:29.512Z,70.49
2023-02-24T07:56:17.859Z,69.65
2023-02-24T07:59:03.919Z,69.46
2023-02-24T08:01:50.862Z,69.91
2023-02-24T08:04:36.503Z,68.88
2023-02-24T08:07:25.006Z,66.78
2023-02-24T08:10:24.490Z,65.09
2023-02-24T08:13:12.097Z,64.22
2023-02-24T08:15:57.878Z,65.87
2023-02-24T08:18:49.006Z,66.45
2023-02-24T08:21:38.199Z,64.96
2023-02-24T08:24:25.425Z,65.09
2023-02-24T08:27:09.464Z,63.86
2023-02-24T08:30:00.003Z,62.77
2023-02-24T08:32:46.732Z,63.12
2023-02-24T08:35:35.764Z,63.44
2023-02-24T08:38:24.236Z,61.76
2023-02-24T08:41:18.154Z,62.56
2023-02-24T08:44:03.059Z,61.05
2023-02-24T08:46:50.548Z,60.78
2023-02-24T08:49:34.847Z,59.84
2023-02-24T08:52:20.406Z,60.17
2023-02-24T08:55:10.822Z,59.06
2023-02-24T08:57:56.337Z,58.60
2023-02-24T09:00:49.343Z,60.89
2023-02-24T09:03:35.352Z,59.94
2023-02-24T09:06:25.561Z,60.27
2023-02-24T09:09:18.826Z,60.27
2023-02-24T09:12:03.459Z,60.14
2023-02-24T09:14:49.484Z,59.83
2023-02-24T09:17:50.305Z,60.14
2023-02-24T09:20:54.141Z,58.46
2023-02-24T09:23:46.100Z,58.35
2023-02-24T09:26:33.130Z,59.49
2023-02-24T09:29:31.303Z,62.23
2023-02-24T09:32:15.355Z,61.08
2023-02-24T09:34:59.418Z,60.75
2023-02-24T09:37:44.662Z,60.19
2023-02-24T09:40:40.205Z,61.50
2023-02-24T09:43:28.001Z,59.63
2023-02-24T09:46:15.492Z,62.65
2023-02-24T09:49:06.766Z,60.19
2023-02-24T09:52:00.628Z,58.49
2023-02-24T09:55:05.854Z,58.39
2023-02-24T09:58:13.366Z,60.66
2023-02-24T10:01:21.306Z,60.44
2023-02-24T10:04:36.124Z,60.62
2023-02-24T10:07:28.254Z,62.90
2023-02-24T10:10:20.823Z,60.50
2023-02-24T10:13:17.156Z,61.34
2023-02-24T10:16:07.234Z,58.96
2023-02-24T10:19:01.424Z,58.65
2023-02-24T10:22:00.489Z,60.37
2023-02-24T10:24:48.804Z,61.51
2023-02-24T10:27:39.695Z,59.52
2023-02-24T10:30:41.269Z,58.68
2023-02-24T10:33:37.866Z,56.78
2023-02-24T10:36:30.656Z,57.44
2023-02-24T10:39:20.477Z,58.73
2023-02-24T10:42:20.196Z,57.05
2023-02-24T10:45:17.524Z,57.89
2023-02-24T10:48:02.204Z,55.84
2023-02-24T10:50:56.002Z,56.10
2023-02-24T10:53:41.172Z,58.44
2023-02-24T10:56:41.761Z,56.64
2023-02-24T10:59:58.491Z,56.94
2023-02-24T11:03:07.115Z,57.10
2023-02-24T11:06:08.298Z,57.50
2023-02-24T11:09:18.729Z,56.06
2023-02-24T11:12:30.662Z,56.10
2023-02-24T11:15:37.792Z,60.39
2023-02-24T11:18:25.645Z,57.15
2023-02-24T11:21:14.486Z,55.47
2023-02-24T11:24:03.104Z,58.49
2023-02-24T11:26:48.422Z,58.60
2023-02-24T11:29:46.715Z,57.03
2023-02-24T11:32:45.591Z,56.67
2023-02-24T11:35:38.475Z,59.64
2023-02-24T11:38:35.251Z,61.83
2023-02-24T11:41:26.067Z,59.42
2023-02-24T11:44:17.386Z,59.75
2023-02-24T11:47:07.441Z,58.57
2023-02-24T11:49:54.541Z,58.18
2023-02-24T11:52:46.890Z,57.31
2023-02-24T11:55:36.237Z,59.19
2023-02-24T11:58:26.648Z,61.25
2023-02-24T12:01:16.169Z,60.12
2023-02-24T12:04:12.080Z,63.14
2023-02-24T12:07:02.114Z,64.64
2023-02-24T12:09:54.845Z,62.42
2023-02-24T12:12:45.880Z,62.88
2023-02-24T12:15:34.307Z,62.60
2023-02-24T12:18:25.438Z,62.98
2023-02-24T12:21:14.957Z,61.34
2023-02-24T12:24:01.440Z,60.86
2023-02-24T12:26:56.117Z,59.99
2023-02-24T12:29:55.055Z,61.03
2023-02-24T12:32:58.520Z,63.54
2023-02-24T12:35:49.365Z,61.82
2023-02-24T12:38:46.919Z,64.45
2023-02-24T12:41:50.261Z,64.44
2023-02-24T12:44:44.192Z,62.17
2023-02-24T12:47:40.371Z,60.38
2023-02-24T12:50:34.161Z,60.26
2023-02-24T12:53:23.793Z,61.50
2023-02-24T12:56:16.854Z,61.24
2023-02-24T12:59:06.309Z,61.28
2023-02-24T13:01:56.300Z,61.90
2023-02-24T13:04:46.824Z,63.17
2023-02-24T13:07:50.183Z,62.28
2023-02-24T13:10:43.446Z,63.81
2023-02-24T13:13:33.395Z,63.47
2023-02-24T13:16:29.624Z,65.23
2023-02-24T13:19:23.461Z,63.43
2023-02-24T13:22:20.180Z,62.13
2023-02-24T13:25:21.576Z,58.59
2023-02-24T13:28:19.416Z,59.32
2023-02-24T13:31:06.604Z,60.39
2023-02-24T13:33:52.957Z,59.71
2023-02-24T13:36:48.282Z,59.70
2023-02-24T13:39:35.606Z,60.17
2023-02-24T13:42:25.101Z,61.29
2023-02-24T13:45:20.863Z,60.70
2023-02-24T13:48:19.737Z,63.78
2023-02-24T13:51:24.168Z,62.38
2023-02-24T13:54:24.446Z,64.57
2023-02-24T13:57:27.300Z,66.15
2023-02-24T14:00:22.034Z,67.46
2023-02-24T14:03:12.740Z,65.76
2023-02-24T14:05:57.505Z,64.50
2023-02-24T14:08:47.381Z,65.24
2023-02-24T14:11:36.062Z,65.14
2023-02-24T14:14:20.512Z,65.76
2023-02-24T14:17:04.717Z,66.18
2023-02-24T14:19:48.930Z,67.33
2023-02-24T14:22:34.763Z,68.28
2023-02-24T14:25:20.714Z,68.97
2023-02-24T14:28:05.078Z,68.57
2023-02-24T14:30:54.859Z,68.25
2023-02-24T14:33:40.625Z,67.75
2023-02-24T14:36:27.438Z,68.84
2023-02-24T14:39:17.153Z,68.26
2023-02-24T14:42:15.077Z,69.73
2023-02-24T14:45:00.193Z,72.65
2023-02-24T14:47:44.409Z,71.26
2023-02-24T14:50:31.781Z,71.84
2023-02-24T14:53:18.747Z,73.12
2023-02-24T14:56:06.293Z,72.96
2023-02-24T14:58:57.048Z,75.05
2023-02-24T15:01:43.609Z,75.37
2023-02-24T15:04:35.245Z,73.68
2023-02-24T15:07:23.815Z,74.43
2023-02-24T15:10:21.191Z,75.65
2023-02-24T15:13:13.899Z,76.58
2023-02-24T15:16:07.124Z,75.98
2023-02-24T15:18:52.770Z,76.67
2023-02-24T15:21:43.083Z,76.76
2023-02-24T15:24:28.986Z,79.48
2023-02-24T15:27:23.854Z,80.08
2023-02-24T15:30:26.417Z,81.20
2023-02-24T15:33:23.322Z,82.35
2023-02-24T15:36:11.826Z,82.13
2023-02-24T15:38:59.017Z,80.03
2023-02-24T15:41:44.875Z,79.33
2023-02-24T15:44:30.994Z,80.86
2023-02-24T15:47:24.006Z,80.83
2023-02-24T15:50:10.699Z,82.41
2023-02-24T15:52:56.044Z,81.45
2023-02-24T15:55:42.827Z,80.85
2023-02-24T15:58:27.405Z,80.84
2023-02-24T16:01:12.840Z,79.77
2023-02-24T16:03:56.957Z,80.87
2023-02-24T16:06:54.038Z,81.24
2023-02-24T16:09:42.035Z,81.28
2023-02-24T16:12:29.545Z,81.13
2023-02-24T16:15:20.325Z,80.92
2023-02-24T16:18:04.524Z,81.13
2023-02-24T16:20:54.479Z,81.48
2023-02-24T16:23:40.892Z,81.22
2023-02-24T16:26:25.347Z,82.23
2023-02-24T16:29:15.477Z,84.24
2023-02-24T16:31:59.588Z,83.02
2023-02-24T16:34:43.631Z,83.63
2023-02-24T16:37:29.880Z,83.33
2023-02-24T16:40:23.262Z,82.41
2023-02-24T16:43:07.039Z,81.69
2023-02-24T16:45:55.157Z,83.11
2023-02-24T16:48:40.642Z,82.81
2023-02-24T16:51:24.612Z,82.16
2023-02-24T16:54:08.749Z,81.66
2023-02-24T16:56:54.474Z,81.14
2023-02-24T16:59:38.288Z,80.46
2023-02-24T17:02:25.676Z,80.61
2023-02-24T17:05:17.289Z,81.07
2023-02-24T17:08:01.120Z,81.86
2023-02-24T17:10:48.111Z,81.53
2023-02-24T17:13:33.724Z,81.36
2023-02-24T17:16:17.668Z,81.54
2023-02-24T17:19:01.391Z,81.70
2023-02-24T17:21:46.138Z,82.54
2023-02-24T17:24:30.071Z,82.25
2023-02-24T17:27:13.953Z,83.19
2023-02-24T17:29:59.202Z,82.52
2023-02-24T17:32:43.475Z,83.04
2023-02-24T17:35:28.428Z,82.61
2023-02-24T17:38:13.580Z,83.41
2023-02-24T17:40:57.709Z,82.84
2023-02-24T17:43:41.730Z,82.07
2023-02-24T17:46:27.152Z,82.38
2023-02-24T17:49:11.380Z,82.16
2023-02-24T17:51:55.535Z,82.18
2023-02-24T17:54:39.462Z,82.62
2023-02-24T17:57:23.246Z,81.90
2023-02-24T18:00:08.816Z,82.17
2023-02-24T18:03:01.675Z,82.26
2023-02-24T18:05:47.151Z,82.40
2023-02-24T18:08:31.708Z,82.06
2023-02-24T18:11:17.864Z,82.01
2023-02-24T18:14:01.925Z,81.74
2023-02-24T18:16:46.248Z,81.70
2023-02-24T18:19:31.839Z,81.48
2023-02-24T18:22:16.138Z,82.06
2023-02-24T18:25:01.254Z,81.57
2023-02-24T18:27:45.194Z,81.50
2023-02-24T18:30:29.431Z,81.55
2023-02-24T18:33:13.743Z,81.69
2023-02-24T18:36:01.305Z,81.03
2023-02-24T18:38:45.900Z,81.39
2023-02-24T18:41:31.902Z,81.61
2023-02-24T18:44:15.802Z,82.40
2023-02-24T18:46:59.868Z,82.61
2023-02-24T18:49:43.795Z,81.83
2023-02-24T18:52:29.507Z,81.58
2023-02-24T18:55:13.478Z,81.63
2023-02-24T18:57:57.461Z,81.26
2023-02-24T19:00:41.692Z,82.73
2023-02-24T19:03:26.290Z,83.65
2023-02-24T19:06:10.962Z,83.23
2023-02-24T19:09:00.105Z,84.57
2023-02-24T19:11:44.410Z,84.98
2023-02-24T19:14:28.525Z,85.10
2023-02-24T19:17:12.830Z,85.26
2023-02-24T19:19:56.808Z,85.16
2023-02-24T19:22:41.468Z,85.34
2023-02-24T19:25:27.243Z,84.86
2023-02-24T19:28:13.119Z,84.79
2023-02-24T19:30:57.228Z,84.84
2023-02-24T19:33:41.230Z,83.86
2023-02-24T19:36:25.467Z,86.14
2023-02-24T19:39:12.285Z,86.06
2023-02-24T19:41:58.076Z,86.57
2023-02-24T19:44:42.367Z,86.09
2023-02-24T19:47:26.760Z,86.51
2023-02-24T19:50:12.673Z,85.84
2023-02-24T19:52:56.799Z,86.30
2023-02-24T19:55:40.814Z,86.30
2023-02-24T19:58:27.363Z,87.17
2023-02-24T20:01:13.740Z,86.27
2023-02-24T20:04:00.259Z,87.14
2023-02-24T20:06:44.332Z,86.42
2023-02-24T20:09:29.070Z,87.64
2023-02-24T20:12:13.291Z,87.46
2023-02-24T20:14:59.345Z,88.05
2023-02-24T20:17:43.468Z,89.00
2023-02-24T20:20:27.554Z,90.58
2023-02-24T20:23:13.557Z,91.04
2023-02-24T20:25:58.227Z,90.94
2023-02-24T20:28:42.488Z,89.50
2023-02-24T20:31:28.435Z,89.66
2023-02-24T20:34:13.677Z,89.13
2023-02-24T20:36:58.040Z,89.39
2023-02-24T20:39:42.229Z,89.32
2023-02-24T20:42:26.636Z,88.60
2023-02-24T20:45:12.623Z,88.60
2023-02-24T20:47:58.162Z,88.77
2023-02-24T20:50:43.428Z,89.13
2023-02-24T20:53:27.636Z,89.03
2023-02-24T20:56:19.471Z,87.63
2023-02-24T20:59:06.385Z,88.32
2023-02-24T21:01:51.448Z,88.73
2023-02-24T21:04:37.275Z,88.67
2023-02-24T21:07:21.306Z,89.76
2023-02-24T21:10:06.389Z,88.98
2023-02-24T21:12:52.791Z,89.52
2023-02-24T21:15:36.973Z,89.00
2023-02-24T21:18:22.148Z,88.55
2023-02-24T21:21:08.926Z,88.37
2023-02-24T21:23:53.395Z,87.76
2023-02-24T21:26:37.473Z,87.69
2023-02-24T21:29:21.523Z,87.45
2023-02-24T21:32:05.856Z,86.89
2023-02-24T21:34:50.040Z,87.39
2023-02-24T21:37:36.064Z,87.02
2023-02-24T21:40:20.305Z,87.07
2023-02-24T21:43:05.862Z,87.27
2023-02-24T21:45:49.812Z,87.63
2023-02-24T21:48:33.797Z,88.01
2023-02-24T21:51:18.348Z,89.96
2023-02-24T21:54:04.927Z,90.44
2023-02-24T21:56:49.079Z,90.23
2023-02-24T21:59:33.571Z,88.76
2023-02-24T22:02:17.998Z,89.05
2023-02-24T22:05:01.884Z,89.42
2023-02-24T22:07:48.236Z,88.32
2023-02-24T22:10:33.365Z,88.39
2023-02-24T22:13:17.400Z,87.80
2023-02-24T22:16:02.303Z,87.88
2023-02-24T22:18:46.661Z,87.59
2023-02-24T22:21:31.350Z,87.12
2023-02-24T22:24:17.381Z,87.10
2023-02-24T22:27:02.707Z,88.41
2023-02-24T22:29:46.599Z,87.92
2023-02-24T22:32:30.564Z,88.80
2023-02-24T22:35:14.684Z,88.15
2023-02-24T22:37:58.636Z,87.14
2023-02-24T22:40:42.601Z,85.77
2023-02-24T22:43:28.992Z,84.61
2023-02-24T22:46:15.075Z,85.45
2023-02-24T22:49:00.182Z,84.84
2023-02-24T22:51:44.047Z,84.44
2023-02-24T22:54:27.924Z,84.89
2023-02-24T22:57:12.422Z,85.36
2023-02-24T22:59:57.687Z,85.07
2023-02-24T23:02:41.722Z,85.75
2023-02-24T23:05:25.505Z,84.98
2023-02-24T23:08:10.220Z,85.04
2023-02-24T23:10:54.690Z,85.17
2023-02-24T23:13:38.514Z,86.21
2023-02-24T23:16:26.392Z,86.51
2023-02-24T23:19:13.713Z,86.70
2023-02-24T23:21:57.531Z,86.04
2023-02-24T23:24:41.699Z,85.66
2023-02-24T23:27:25.772Z,84.65
2023-02-24T23:30:12.341Z,83.87
2023-02-24T23:32:57.866Z,83.88
2023-02-24T23:35:42.421Z,85.64
2023-02-24T23:38:26.567Z,86.76
2023-02-24T23:41:11.516Z,86.56
2023-02-24T23:43:55.407Z,87.02
2023-02-24T23:46:39.532Z,86.19
2023-02-24T23:49:24.879Z,86.65
2023-02-24T23:52:10.215Z,86.66
2023-02-24T23:54:54.383Z,86.62
2023-02-24T23:57:38.434Z,86.54
